Chisago City, Minnesota
Current Conditions -  °F | °C
As of 11:15 PM on Wednesday 26 Nov 2014 (Local Time) from KOEO Reporting Station
Clear Clear  
Wind Chill: -1°   Ceiling: Unl
Heat Index: 12°   Visibility: 10mi
Dew Point: -1°   Wind: 10mph
Humidity: 56%   Direction: 340°NNW
Pressure: 30.4"   Gusts: 21mph
Location:  45.37°N, 92.89°W
Report Text: KOEO 270515Z AUTO 34009G18KT 10SM CLR M11/M18 A3040 RMK AO2 T11101183
Loading
Personal Weather Stations






























Interactive Weather Map New forecast layout! Learn more

10-Day Weather Forecast

Advertisements
Track Severe Weather on mobile